sensor_id;sensor_type;location;lat;lon;timestamp;temperature;humidity
41953;DHT22;47381;28.206;112.926;2022-09-17T00:01:24;30.20;54.60
41953;DHT22;47381;28.206;112.926;2022-09-17T00:03:57;30.20;54.70
41953;DHT22;47381;28.206;112.926;2022-09-17T00:06:30;30.10;54.80
41953;DHT22;47381;28.206;112.926;2022-09-17T00:08:57;30.20;54.90
41953;DHT22;47381;28.206;112.926;2022-09-17T00:11:27;30.20;54.60
41953;DHT22;47381;28.206;112.926;2022-09-17T00:13:56;30.20;54.70
41953;DHT22;47381;28.206;112.926;2022-09-17T00:16:41;30.20;54.90
41953;DHT22;47381;28.206;112.926;2022-09-17T00:19:13;30.20;54.90
41953;DHT22;47381;28.206;112.926;2022-09-17T00:21:41;30.20;54.90
41953;DHT22;47381;28.206;112.926;2022-09-17T00:24:11;30.20;54.90
41953;DHT22;47381;28.206;112.926;2022-09-17T00:26:38;30.20;55.10
41953;DHT22;47381;28.206;112.926;2022-09-17T00:29:06;30.20;55.20
41953;DHT22;47381;28.206;112.926;2022-09-17T00:31:33;30.10;55.20
41953;DHT22;47381;28.206;112.926;2022-09-17T00:34:02;30.10;55.30
41953;DHT22;47381;28.206;112.926;2022-09-17T00:36:29;30.20;55.30
41953;DHT22;47381;28.206;112.926;2022-09-17T00:38:58;30.20;55.00
41953;DHT22;47381;28.206;112.926;2022-09-17T00:41:28;30.20;54.90
41953;DHT22;47381;28.206;112.926;2022-09-17T00:43:57;30.20;54.90
41953;DHT22;47381;28.206;112.926;2022-09-17T00:46:37;30.20;54.90
41953;DHT22;47381;28.206;112.926;2022-09-17T00:49:11;30.20;55.00
41953;DHT22;47381;28.206;112.926;2022-09-17T00:51:53;30.30;54.80
41953;DHT22;47381;28.206;112.926;2022-09-17T00:54:23;30.20;54.60
41953;DHT22;47381;28.206;112.926;2022-09-17T00:56:51;30.30;54.60
41953;DHT22;47381;28.206;112.926;2022-09-17T00:59:19;30.20;54.70
41953;DHT22;47381;28.206;112.926;2022-09-17T01:01:48;30.20;54.60
41953;DHT22;47381;28.206;112.926;2022-09-17T01:04:26;30.20;54.20
41953;DHT22;47381;28.206;112.926;2022-09-17T01:12:45;30.30;54.50
41953;DHT22;47381;28.206;112.926;2022-09-17T01:15:29;30.30;54.20
41953;DHT22;47381;28.206;112.926;2022-09-17T01:24:00;30.30;53.90
41953;DHT22;47381;28.206;112.926;2022-09-17T01:29:12;30.40;53.50
41953;DHT22;47381;28.206;112.926;2022-09-17T01:34:29;30.40;53.70
41953;DHT22;47381;28.206;112.926;2022-09-17T01:43:09;30.50;52.90
41953;DHT22;47381;28.206;112.926;2022-09-17T01:48:28;30.50;51.90
41953;DHT22;47381;28.206;112.926;2022-09-17T01:51:09;30.60;51.70
41953;DHT22;47381;28.206;112.926;2022-09-17T01:56:09;30.60;51.60
41953;DHT22;47381;28.206;112.926;2022-09-17T01:58:44;30.70;51.30
41953;DHT22;47381;28.206;112.926;2022-09-17T02:01:19;30.70;50.80
41953;DHT22;47381;28.206;112.926;2022-09-17T02:04:19;30.80;50.70
41953;DHT22;47381;28.206;112.926;2022-09-17T02:06:54;30.80;49.80
41953;DHT22;47381;28.206;112.926;2022-09-17T02:09:44;30.80;49.60
41953;DHT22;47381;28.206;112.926;2022-09-17T02:12:18;30.90;49.50
41953;DHT22;47381;28.206;112.926;2022-09-17T02:14:55;30.90;49.30
41953;DHT22;47381;28.206;112.926;2022-09-17T02:17:31;31.00;49.30
41953;DHT22;47381;28.206;112.926;2022-09-17T02:20:00;31.10;49.40
41953;DHT22;47381;28.206;112.926;2022-09-17T02:30:24;31.20;48.30
41953;DHT22;47381;28.206;112.926;2022-09-17T02:32:52;31.20;48.30
41953;DHT22;47381;28.206;112.926;2022-09-17T02:35:19;31.20;47.90
41953;DHT22;47381;28.206;112.926;2022-09-17T02:37:46;31.30;47.80
41953;DHT22;47381;28.206;112.926;2022-09-17T02:40:16;31.30;47.70
41953;DHT22;47381;28.206;112.926;2022-09-17T02:54:29;31.60;48.50
41953;DHT22;47381;28.206;112.926;2022-09-17T02:57:14;31.60;48.10
41953;DHT22;47381;28.206;112.926;2022-09-17T02:59:55;31.70;47.90
41953;DHT22;47381;28.206;112.926;2022-09-17T03:05:20;31.70;47.30
41953;DHT22;47381;28.206;112.926;2022-09-17T03:07:47;31.80;46.80
41953;DHT22;47381;28.206;112.926;2022-09-17T03:10:16;31.80;46.30
41953;DHT22;47381;28.206;112.926;2022-09-17T03:12:45;31.90;45.90
41953;DHT22;47381;28.206;112.926;2022-09-17T03:15:12;31.90;46.10
41953;DHT22;47381;28.206;112.926;2022-09-17T03:17:39;32.00;45.80
41953;DHT22;47381;28.206;112.926;2022-09-17T03:20:06;32.00;45.60
41953;DHT22;47381;28.206;112.926;2022-09-17T03:22:34;32.10;45.90
41953;DHT22;47381;28.206;112.926;2022-09-17T03:25:01;32.00;46.30
41953;DHT22;47381;28.206;112.926;2022-09-17T03:27:28;32.10;45.90
41953;DHT22;47381;28.206;112.926;2022-09-17T03:29:55;32.20;45.40
41953;DHT22;47381;28.206;112.926;2022-09-17T03:32:22;32.20;44.60
41953;DHT22;47381;28.206;112.926;2022-09-17T03:35:09;32.20;44.30
41953;DHT22;47381;28.206;112.926;2022-09-17T03:37:37;32.20;44.10
41953;DHT22;47381;28.206;112.926;2022-09-17T03:40:05;32.30;44.00
41953;DHT22;47381;28.206;112.926;2022-09-17T03:42:32;32.40;43.60
41953;DHT22;47381;28.206;112.926;2022-09-17T03:44:59;32.40;43.80
41953;DHT22;47381;28.206;112.926;2022-09-17T03:47:26;32.50;44.30
41953;DHT22;47381;28.206;112.926;2022-09-17T03:49:53;32.70;44.30
41953;DHT22;47381;28.206;112.926;2022-09-17T03:52:21;32.60;44.50
41953;DHT22;47381;28.206;112.926;2022-09-17T03:54:50;32.70;44.20
41953;DHT22;47381;28.206;112.926;2022-09-17T03:57:17;32.70;44.10
41953;DHT22;47381;28.206;112.926;2022-09-17T03:59:44;32.70;43.90
41953;DHT22;47381;28.206;112.926;2022-09-17T04:02:11;32.80;44.00
41953;DHT22;47381;28.206;112.926;2022-09-17T04:04:39;32.80;44.40
41953;DHT22;47381;28.206;112.926;2022-09-17T04:07:06;32.80;44.60
41953;DHT22;47381;28.206;112.926;2022-09-17T04:09:53;32.80;44.80
41953;DHT22;47381;28.206;112.926;2022-09-17T04:12:20;32.90;44.50
41953;DHT22;47381;28.206;112.926;2022-09-17T04:14:47;32.90;43.90
41953;DHT22;47381;28.206;112.926;2022-09-17T04:17:15;33.00;44.10
41953;DHT22;47381;28.206;112.926;2022-09-17T04:20:03;33.10;43.50
41953;DHT22;47381;28.206;112.926;2022-09-17T04:22:31;33.10;43.30
41953;DHT22;47381;28.206;112.926;2022-09-17T04:24:58;33.20;43.00
41953;DHT22;47381;28.206;112.926;2022-09-17T04:27:26;33.20;42.60
41953;DHT22;47381;28.206;112.926;2022-09-17T04:29:53;33.20;42.40
41953;DHT22;47381;28.206;112.926;2022-09-17T04:32:20;33.20;41.60
41953;DHT22;47381;28.206;112.926;2022-09-17T04:34:47;33.30;41.30
41953;DHT22;47381;28.206;112.926;2022-09-17T04:37:14;33.40;41.20
41953;DHT22;47381;28.206;112.926;2022-09-17T04:39:43;33.40;41.60
41953;DHT22;47381;28.206;112.926;2022-09-17T04:42:10;33.40;41.50
41953;DHT22;47381;28.206;112.926;2022-09-17T04:44:37;33.30;41.60
41953;DHT22;47381;28.206;112.926;2022-09-17T04:47:05;33.40;41.90
41953;DHT22;47381;28.206;112.926;2022-09-17T04:49:32;33.50;41.40
41953;DHT22;47381;28.206;112.926;2022-09-17T04:51:59;33.60;40.80
41953;DHT22;47381;28.206;112.926;2022-09-17T04:54:26;33.60;40.70
41953;DHT22;47381;28.206;112.926;2022-09-17T04:56:53;33.70;40.80
41953;DHT22;47381;28.206;112.926;2022-09-17T04:59:21;33.70;40.00
41953;DHT22;47381;28.206;112.926;2022-09-17T05:01:50;33.70;39.80
41953;DHT22;47381;28.206;112.926;2022-09-17T05:04:18;33.60;39.20
41953;DHT22;47381;28.206;112.926;2022-09-17T05:06:45;33.70;38.90
41953;DHT22;47381;28.206;112.926;2022-09-17T05:09:15;33.80;38.80
41953;DHT22;47381;28.206;112.926;2022-09-17T05:11:42;33.80;38.70
41953;DHT22;47381;28.206;112.926;2022-09-17T05:14:09;33.80;38.70
41953;DHT22;47381;28.206;112.926;2022-09-17T05:16:36;33.80;38.70
41953;DHT22;47381;28.206;112.926;2022-09-17T05:19:23;33.80;38.60
41953;DHT22;47381;28.206;112.926;2022-09-17T05:21:50;33.90;38.90
41953;DHT22;47381;28.206;112.926;2022-09-17T05:24:17;34.00;38.40
41953;DHT22;47381;28.206;112.926;2022-09-17T05:26:44;34.00;38.60
41953;DHT22;47381;28.206;112.926;2022-09-17T05:29:11;34.00;38.30
41953;DHT22;47381;28.206;112.926;2022-09-17T05:31:39;34.10;38.20
41953;DHT22;47381;28.206;112.926;2022-09-17T05:34:06;34.20;38.00
41953;DHT22;47381;28.206;112.926;2022-09-17T05:36:33;34.10;37.90
41953;DHT22;47381;28.206;112.926;2022-09-17T05:39:00;34.30;37.60
41953;DHT22;47381;28.206;112.926;2022-09-17T05:41:27;34.20;37.40
41953;DHT22;47381;28.206;112.926;2022-09-17T05:43:54;34.30;37.20
41953;DHT22;47381;28.206;112.926;2022-09-17T05:46:21;34.40;37.10
41953;DHT22;47381;28.206;112.926;2022-09-17T05:48:50;34.40;37.00
41953;DHT22;47381;28.206;112.926;2022-09-17T05:51:17;34.40;36.60
41953;DHT22;47381;28.206;112.926;2022-09-17T05:53:44;34.40;36.50
41953;DHT22;47381;28.206;112.926;2022-09-17T05:56:11;34.40;36.50
41953;DHT22;47381;28.206;112.926;2022-09-17T05:58:41;34.50;36.20
41953;DHT22;47381;28.206;112.926;2022-09-17T06:01:08;34.50;35.60
41953;DHT22;47381;28.206;112.926;2022-09-17T06:03:41;34.60;35.30
41953;DHT22;47381;28.206;112.926;2022-09-17T06:06:08;34.60;34.60
41953;DHT22;47381;28.206;112.926;2022-09-17T06:08:36;34.30;34.40
41953;DHT22;47381;28.206;112.926;2022-09-17T06:11:05;34.30;34.30
41953;DHT22;47381;28.206;112.926;2022-09-17T06:13:33;34.30;34.20
41953;DHT22;47381;28.206;112.926;2022-09-17T06:16:02;34.50;34.30
41953;DHT22;47381;28.206;112.926;2022-09-17T06:18:30;34.60;33.60
41953;DHT22;47381;28.206;112.926;2022-09-17T06:21:02;34.60;33.30
41953;DHT22;47381;28.206;112.926;2022-09-17T06:23:36;34.60;33.40
41953;DHT22;47381;28.206;112.926;2022-09-17T06:26:05;34.70;33.40
41953;DHT22;47381;28.206;112.926;2022-09-17T06:28:33;34.70;33.10
41953;DHT22;47381;28.206;112.926;2022-09-17T06:31:01;34.70;32.80
41953;DHT22;47381;28.206;112.926;2022-09-17T06:33:30;34.70;32.90
41953;DHT22;47381;28.206;112.926;2022-09-17T06:35:59;34.70;33.00
41953;DHT22;47381;28.206;112.926;2022-09-17T06:38:27;34.80;32.80
41953;DHT22;47381;28.206;112.926;2022-09-17T06:40:55;34.80;33.20
41953;DHT22;47381;28.206;112.926;2022-09-17T06:43:22;34.80;33.20
41953;DHT22;47381;28.206;112.926;2022-09-17T06:46:00;34.80;33.50
41953;DHT22;47381;28.206;112.926;2022-09-17T06:48:29;34.80;33.60
41953;DHT22;47381;28.206;112.926;2022-09-17T06:51:03;34.80;33.70
41953;DHT22;47381;28.206;112.926;2022-09-17T06:53:31;34.90;33.80
41953;DHT22;47381;28.206;112.926;2022-09-17T06:55:59;34.90;33.70
41953;DHT22;47381;28.206;112.926;2022-09-17T06:58:28;34.90;33.10
41953;DHT22;47381;28.206;112.926;2022-09-17T07:01:02;34.90;33.20
41953;DHT22;47381;28.206;112.926;2022-09-17T07:03:30;34.90;33.00
41953;DHT22;47381;28.206;112.926;2022-09-17T07:05:58;34.80;33.10
41953;DHT22;47381;28.206;112.926;2022-09-17T07:08:25;34.90;33.40
41953;DHT22;47381;28.206;112.926;2022-09-17T07:10:56;34.80;33.60
41953;DHT22;47381;28.206;112.926;2022-09-17T07:13:24;34.80;33.70
41953;DHT22;47381;28.206;112.926;2022-09-17T07:16:00;34.70;33.80
41953;DHT22;47381;28.206;112.926;2022-09-17T07:18:28;34.80;33.60
41953;DHT22;47381;28.206;112.926;2022-09-17T07:21:00;34.80;33.70
41953;DHT22;47381;28.206;112.926;2022-09-17T07:23:33;34.90;33.70
41953;DHT22;47381;28.206;112.926;2022-09-17T07:26:03;34.80;33.80
41953;DHT22;47381;28.206;112.926;2022-09-17T07:28:30;34.90;33.80
41953;DHT22;47381;28.206;112.926;2022-09-17T07:31:19;34.80;33.90
41953;DHT22;47381;28.206;112.926;2022-09-17T07:33:46;34.80;33.90
41953;DHT22;47381;28.206;112.926;2022-09-17T07:36:15;34.80;33.90
41953;DHT22;47381;28.206;112.926;2022-09-17T07:38:45;34.90;33.70
41953;DHT22;47381;28.206;112.926;2022-09-17T07:41:15;34.80;33.40
41953;DHT22;47381;28.206;112.926;2022-09-17T07:43:45;34.90;33.10
41953;DHT22;47381;28.206;112.926;2022-09-17T07:46:21;34.80;32.80
41953;DHT22;47381;28.206;112.926;2022-09-17T07:48:50;34.80;33.00
41953;DHT22;47381;28.206;112.926;2022-09-17T07:51:19;34.80;33.20
41953;DHT22;47381;28.206;112.926;2022-09-17T07:53:51;34.80;33.10
41953;DHT22;47381;28.206;112.926;2022-09-17T07:56:18;34.90;32.70
41953;DHT22;47381;28.206;112.926;2022-09-17T07:58:47;34.90;32.40
41953;DHT22;47381;28.206;112.926;2022-09-17T08:01:15;34.80;32.50
41953;DHT22;47381;28.206;112.926;2022-09-17T08:03:46;34.80;32.50
41953;DHT22;47381;28.206;112.926;2022-09-17T08:06:16;34.80;32.50
41953;DHT22;47381;28.206;112.926;2022-09-17T08:08:47;34.80;32.60
41953;DHT22;47381;28.206;112.926;2022-09-17T08:11:18;34.80;33.20
41953;DHT22;47381;28.206;112.926;2022-09-17T08:13:49;34.70;33.40
41953;DHT22;47381;28.206;112.926;2022-09-17T08:16:18;34.70;33.20
41953;DHT22;47381;28.206;112.926;2022-09-17T08:18:46;34.70;33.30
41953;DHT22;47381;28.206;112.926;2022-09-17T08:21:16;34.70;33.20
41953;DHT22;47381;28.206;112.926;2022-09-17T08:23:47;34.70;33.50
41953;DHT22;47381;28.206;112.926;2022-09-17T08:26:15;34.70;33.70
41953;DHT22;47381;28.206;112.926;2022-09-17T08:28:46;34.60;33.50
41953;DHT22;47381;28.206;112.926;2022-09-17T08:31:16;34.60;33.60
41953;DHT22;47381;28.206;112.926;2022-09-17T08:33:44;34.60;33.60
41953;DHT22;47381;28.206;112.926;2022-09-17T08:36:14;34.60;33.00
41953;DHT22;47381;28.206;112.926;2022-09-17T08:38:42;34.60;32.90
41953;DHT22;47381;28.206;112.926;2022-09-17T08:46:37;34.40;33.30
41953;DHT22;47381;28.206;112.926;2022-09-17T08:49:10;34.40;33.30
41953;DHT22;47381;28.206;112.926;2022-09-17T08:55:03;34.30;33.40
41953;DHT22;47381;28.206;112.926;2022-09-17T09:00:14;34.20;32.90
41953;DHT22;47381;28.206;112.926;2022-09-17T09:05:44;34.20;32.50
41953;DHT22;47381;28.206;112.926;2022-09-17T09:10:57;34.10;32.10
41953;DHT22;47381;28.206;112.926;2022-09-17T09:13:32;34.10;31.70
41953;DHT22;47381;28.206;112.926;2022-09-17T09:16:28;34.00;31.50
41953;DHT22;47381;28.206;112.926;2022-09-17T09:19:16;33.70;31.70
41953;DHT22;47381;28.206;112.926;2022-09-17T09:30:50;33.70;32.00
41953;DHT22;47381;28.206;112.926;2022-09-17T09:33:30;33.70;31.80
41953;DHT22;47381;28.206;112.926;2022-09-17T09:35:58;33.60;31.60
41953;DHT22;47381;28.206;112.926;2022-09-17T09:38:36;33.60;31.50
41953;DHT22;47381;28.206;112.926;2022-09-17T09:41:07;33.50;31.60
41953;DHT22;47381;28.206;112.926;2022-09-17T09:57:05;33.50;32.80
41953;DHT22;47381;28.206;112.926;2022-09-17T09:59:34;33.40;33.00
41953;DHT22;47381;28.206;112.926;2022-09-17T10:02:02;33.40;33.40
41953;DHT22;47381;28.206;112.926;2022-09-17T10:04:30;33.40;33.70
41953;DHT22;47381;28.206;112.926;2022-09-17T10:07:07;33.50;34.00
41953;DHT22;47381;28.206;112.926;2022-09-17T10:09:37;33.50;34.20
41953;DHT22;47381;28.206;112.926;2022-09-17T10:12:13;33.50;34.50
41953;DHT22;47381;28.206;112.926;2022-09-17T10:14:43;33.50;35.00
41953;DHT22;47381;28.206;112.926;2022-09-17T10:17:20;33.50;35.30
41953;DHT22;47381;28.206;112.926;2022-09-17T10:22:45;33.50;35.90
41953;DHT22;47381;28.206;112.926;2022-09-17T10:25:32;33.50;36.00
41953;DHT22;47381;28.206;112.926;2022-09-17T10:28:03;33.50;36.40
41953;DHT22;47381;28.206;112.926;2022-09-17T10:31:04;33.40;36.70
41953;DHT22;47381;28.206;112.926;2022-09-17T10:34:00;33.50;36.90
41953;DHT22;47381;28.206;112.926;2022-09-17T10:36:45;33.40;37.10
41953;DHT22;47381;28.206;112.926;2022-09-17T10:42:05;33.40;38.10
41953;DHT22;47381;28.206;112.926;2022-09-17T10:44:34;33.40;38.20
41953;DHT22;47381;28.206;112.926;2022-09-17T10:47:28;33.40;38.50
41953;DHT22;47381;28.206;112.926;2022-09-17T10:50:05;33.40;38.60
41953;DHT22;47381;28.206;112.926;2022-09-17T10:52:54;33.40;38.90
41953;DHT22;47381;28.206;112.926;2022-09-17T10:55:39;33.30;39.30
41953;DHT22;47381;28.206;112.926;2022-09-17T11:00:57;33.30;39.60
41953;DHT22;47381;28.206;112.926;2022-09-17T11:18:24;33.20;40.20
41953;DHT22;47381;28.206;112.926;2022-09-17T11:26:35;33.20;40.30
41953;DHT22;47381;28.206;112.926;2022-09-17T11:32:06;33.20;40.50
41953;DHT22;47381;28.206;112.926;2022-09-17T11:34:54;33.20;40.70
41953;DHT22;47381;28.206;112.926;2022-09-17T11:37:32;33.10;41.00
41953;DHT22;47381;28.206;112.926;2022-09-17T11:40:12;33.10;41.10
41953;DHT22;47381;28.206;112.926;2022-09-17T11:45:26;33.00;41.50
41953;DHT22;47381;28.206;112.926;2022-09-17T11:48:02;33.00;41.60
41953;DHT22;47381;28.206;112.926;2022-09-17T11:50:35;33.00;41.60
41953;DHT22;47381;28.206;112.926;2022-09-17T11:53:22;33.00;41.60
41953;DHT22;47381;28.206;112.926;2022-09-17T11:55:56;33.00;41.90
41953;DHT22;47381;28.206;112.926;2022-09-17T12:01:14;32.90;42.30
41953;DHT22;47381;28.206;112.926;2022-09-17T12:06:45;32.90;42.20
41953;DHT22;47381;28.206;112.926;2022-09-17T12:09:23;32.90;42.40
41953;DHT22;47381;28.206;112.926;2022-09-17T12:14:50;32.90;42.80
41953;DHT22;47381;28.206;112.926;2022-09-17T12:17:46;32.90;42.70
41953;DHT22;47381;28.206;112.926;2022-09-17T12:20:26;32.90;42.60
41953;DHT22;47381;28.206;112.926;2022-09-17T12:22:57;32.80;42.60
41953;DHT22;47381;28.206;112.926;2022-09-17T12:25:34;32.90;42.70
41953;DHT22;47381;28.206;112.926;2022-09-17T12:28:26;32.80;42.80
41953;DHT22;47381;28.206;112.926;2022-09-17T12:31:41;32.90;42.70
41953;DHT22;47381;28.206;112.926;2022-09-17T12:37:01;32.80;42.70
41953;DHT22;47381;28.206;112.926;2022-09-17T12:51:03;32.70;42.90
41953;DHT22;47381;28.206;112.926;2022-09-17T12:54:00;32.70;43.40
41953;DHT22;47381;28.206;112.926;2022-09-17T12:59:33;32.70;43.30
41953;DHT22;47381;28.206;112.926;2022-09-17T13:15:38;32.60;43.30
41953;DHT22;47381;28.206;112.926;2022-09-17T13:26:06;32.40;43.00
41953;DHT22;47381;28.206;112.926;2022-09-17T13:31:45;32.40;42.50
41953;DHT22;47381;28.206;112.926;2022-09-17T13:36:51;32.40;42.50
41953;DHT22;47381;28.206;112.926;2022-09-17T13:39:38;32.40;43.20
41953;DHT22;47381;28.206;112.926;2022-09-17T13:44:43;32.50;43.10
41953;DHT22;47381;28.206;112.926;2022-09-17T13:47:56;32.50;43.20
41953;DHT22;47381;28.206;112.926;2022-09-17T13:50:09;32.40;42.80
41953;DHT22;47381;28.206;112.926;2022-09-17T13:52:48;32.40;43.70
41953;DHT22;47381;28.206;112.926;2022-09-17T13:55:41;32.30;42.80
41953;DHT22;47381;28.206;112.926;2022-09-17T13:58:10;32.30;42.70
41953;DHT22;47381;28.206;112.926;2022-09-17T14:01:02;32.40;42.90
41953;DHT22;47381;28.206;112.926;2022-09-17T14:22:28;32.30;42.40
41953;DHT22;47381;28.206;112.926;2022-09-17T14:24:55;32.20;42.70
41953;DHT22;47381;28.206;112.926;2022-09-17T14:27:46;32.20;43.10
41953;DHT22;47381;28.206;112.926;2022-09-17T14:30:32;32.30;43.10
41953;DHT22;47381;28.206;112.926;2022-09-17T14:33:25;32.30;43.40
41953;DHT22;47381;28.206;112.926;2022-09-17T14:36:10;32.30;43.00
41953;DHT22;47381;28.206;112.926;2022-09-17T14:38:42;32.20;42.70
41953;DHT22;47381;28.206;112.926;2022-09-17T14:43:54;32.20;43.30
41953;DHT22;47381;28.206;112.926;2022-09-17T14:46:47;32.20;43.30
41953;DHT22;47381;28.206;112.926;2022-09-17T14:49:22;32.20;43.60
41953;DHT22;47381;28.206;112.926;2022-09-17T14:51:54;32.20;43.40
41953;DHT22;47381;28.206;112.926;2022-09-17T14:54:28;32.20;43.00
41953;DHT22;47381;28.206;112.926;2022-09-17T15:07:49;32.20;42.50
41953;DHT22;47381;28.206;112.926;2022-09-17T15:10:20;32.20;43.00
41953;DHT22;47381;28.206;112.926;2022-09-17T15:12:48;32.10;42.50
41953;DHT22;47381;28.206;112.926;2022-09-17T15:15:22;32.20;43.10
41953;DHT22;47381;28.206;112.926;2022-09-17T15:17:54;32.20;43.60
41953;DHT22;47381;28.206;112.926;2022-09-17T15:20:29;32.20;43.60
41953;DHT22;47381;28.206;112.926;2022-09-17T15:23:22;32.20;43.90
41953;DHT22;47381;28.206;112.926;2022-09-17T15:25:54;32.20;42.60
41953;DHT22;47381;28.206;112.926;2022-09-17T15:28:43;32.20;43.10
41953;DHT22;47381;28.206;112.926;2022-09-17T15:31:17;32.10;42.90
41953;DHT22;47381;28.206;112.926;2022-09-17T15:33:45;32.20;42.90
41953;DHT22;47381;28.206;112.926;2022-09-17T15:36:22;32.10;42.40
41953;DHT22;47381;28.206;112.926;2022-09-17T15:38:50;32.00;42.50
41953;DHT22;47381;28.206;112.926;2022-09-17T15:43:49;32.10;43.40
41953;DHT22;47381;28.206;112.926;2022-09-17T15:46:26;32.10;43.50
41953;DHT22;47381;28.206;112.926;2022-09-17T15:49:01;32.20;43.40
41953;DHT22;47381;28.206;112.926;2022-09-17T15:51:32;32.10;43.30
41953;DHT22;47381;28.206;112.926;2022-09-17T15:54:02;32.20;43.00
41953;DHT22;47381;28.206;112.926;2022-09-17T15:56:38;32.10;42.80
41953;DHT22;47381;28.206;112.926;2022-09-17T16:04:33;32.10;42.20
41953;DHT22;47381;28.206;112.926;2022-09-17T16:09:49;32.10;42.10
41953;DHT22;47381;28.206;112.926;2022-09-17T16:12:23;32.10;41.90
41953;DHT22;47381;28.206;112.926;2022-09-17T16:14:53;32.10;42.00
41953;DHT22;47381;28.206;112.926;2022-09-17T16:17:42;32.10;41.90
41953;DHT22;47381;28.206;112.926;2022-09-17T16:20:18;32.10;41.80
41953;DHT22;47381;28.206;112.926;2022-09-17T16:22:59;32.10;41.80
41953;DHT22;47381;28.206;112.926;2022-09-17T16:25:27;32.10;41.60
41953;DHT22;47381;28.206;112.926;2022-09-17T16:27:56;32.10;41.50
41953;DHT22;47381;28.206;112.926;2022-09-17T16:30:44;32.10;41.60
41953;DHT22;47381;28.206;112.926;2022-09-17T16:33:15;32.10;41.70
41953;DHT22;47381;28.206;112.926;2022-09-17T16:35:43;32.10;41.70
41953;DHT22;47381;28.206;112.926;2022-09-17T16:38:10;32.10;41.50
41953;DHT22;47381;28.206;112.926;2022-09-17T16:40:42;32.10;41.50
41953;DHT22;47381;28.206;112.926;2022-09-17T16:43:10;32.10;41.50
41953;DHT22;47381;28.206;112.926;2022-09-17T16:45:37;32.10;41.30
41953;DHT22;47381;28.206;112.926;2022-09-17T16:48:06;32.10;41.30
41953;DHT22;47381;28.206;112.926;2022-09-17T16:50:33;32.10;41.40
41953;DHT22;47381;28.206;112.926;2022-09-17T16:53:01;32.10;41.40
41953;DHT22;47381;28.206;112.926;2022-09-17T16:55:29;32.10;41.50
41953;DHT22;47381;28.206;112.926;2022-09-17T16:57:57;32.10;41.70
41953;DHT22;47381;28.206;112.926;2022-09-17T17:00:27;32.00;42.00
41953;DHT22;47381;28.206;112.926;2022-09-17T17:02:55;32.10;41.80
41953;DHT22;47381;28.206;112.926;2022-09-17T17:05:24;32.00;41.40
41953;DHT22;47381;28.206;112.926;2022-09-17T17:07:52;32.00;41.30
41953;DHT22;47381;28.206;112.926;2022-09-17T17:10:23;32.00;41.60
41953;DHT22;47381;28.206;112.926;2022-09-17T17:12:51;32.00;42.00
41953;DHT22;47381;28.206;112.926;2022-09-17T17:15:19;32.10;42.70
41953;DHT22;47381;28.206;112.926;2022-09-17T17:17:49;32.00;42.90
41953;DHT22;47381;28.206;112.926;2022-09-17T17:20:19;32.00;43.40
41953;DHT22;47381;28.206;112.926;2022-09-17T17:22:48;32.00;43.80
41953;DHT22;47381;28.206;112.926;2022-09-17T17:25:19;32.00;44.20
41953;DHT22;47381;28.206;112.926;2022-09-17T17:27:46;32.00;44.80
41953;DHT22;47381;28.206;112.926;2022-09-17T17:30:33;31.90;45.20
41953;DHT22;47381;28.206;112.926;2022-09-17T17:33:00;31.90;45.60
41953;DHT22;47381;28.206;112.926;2022-09-17T17:35:33;31.80;45.90
41953;DHT22;47381;28.206;112.926;2022-09-17T17:38:04;31.80;46.10
41953;DHT22;47381;28.206;112.926;2022-09-17T17:40:31;31.70;46.30
41953;DHT22;47381;28.206;112.926;2022-09-17T17:42:58;31.70;46.40
41953;DHT22;47381;28.206;112.926;2022-09-17T17:45:25;31.70;46.50
41953;DHT22;47381;28.206;112.926;2022-09-17T17:47:52;31.70;46.40
41953;DHT22;47381;28.206;112.926;2022-09-17T17:50:22;31.70;46.30
41953;DHT22;47381;28.206;112.926;2022-09-17T17:52:52;31.80;46.30
41953;DHT22;47381;28.206;112.926;2022-09-17T17:55:19;31.70;46.30
41953;DHT22;47381;28.206;112.926;2022-09-17T17:57:46;31.70;46.30
41953;DHT22;47381;28.206;112.926;2022-09-17T18:00:14;31.70;46.40
41953;DHT22;47381;28.206;112.926;2022-09-17T18:02:43;31.70;46.10
41953;DHT22;47381;28.206;112.926;2022-09-17T18:05:10;31.60;46.30
41953;DHT22;47381;28.206;112.926;2022-09-17T18:07:37;31.60;46.20
41953;DHT22;47381;28.206;112.926;2022-09-17T18:10:04;31.60;46.30
41953;DHT22;47381;28.206;112.926;2022-09-17T18:12:32;31.60;46.30
41953;DHT22;47381;28.206;112.926;2022-09-17T18:14:59;31.50;46.40
41953;DHT22;47381;28.206;112.926;2022-09-17T18:17:27;31.50;46.40
41953;DHT22;47381;28.206;112.926;2022-09-17T18:19:56;31.50;46.50
41953;DHT22;47381;28.206;112.926;2022-09-17T18:22:26;31.60;46.60
41953;DHT22;47381;28.206;112.926;2022-09-17T18:25:13;31.70;46.70
41953;DHT22;47381;28.206;112.926;2022-09-17T18:27:41;31.60;46.70
41953;DHT22;47381;28.206;112.926;2022-09-17T18:30:08;31.70;46.80
41953;DHT22;47381;28.206;112.926;2022-09-17T18:32:35;31.60;46.20
41953;DHT22;47381;28.206;112.926;2022-09-17T18:35:06;31.60;46.10
41953;DHT22;47381;28.206;112.926;2022-09-17T18:37:36;31.60;46.50
41953;DHT22;47381;28.206;112.926;2022-09-17T18:40:03;31.60;46.50
41953;DHT22;47381;28.206;112.926;2022-09-17T18:42:30;31.50;46.90
41953;DHT22;47381;28.206;112.926;2022-09-17T18:44:57;31.60;46.90
41953;DHT22;47381;28.206;112.926;2022-09-17T18:47:25;31.60;46.90
41953;DHT22;47381;28.206;112.926;2022-09-17T18:49:52;31.50;47.10
41953;DHT22;47381;28.206;112.926;2022-09-17T18:52:19;31.50;47.00
41953;DHT22;47381;28.206;112.926;2022-09-17T18:54:46;31.40;47.20
41953;DHT22;47381;28.206;112.926;2022-09-17T18:57:13;31.40;47.20
41953;DHT22;47381;28.206;112.926;2022-09-17T18:59:40;31.50;47.00
41953;DHT22;47381;28.206;112.926;2022-09-17T19:02:10;31.50;47.10
41953;DHT22;47381;28.206;112.926;2022-09-17T19:04:38;31.50;47.10
41953;DHT22;47381;28.206;112.926;2022-09-17T19:07:05;31.50;47.20
41953;DHT22;47381;28.206;112.926;2022-09-17T19:09:32;31.50;47.20
41953;DHT22;47381;28.206;112.926;2022-09-17T19:11:59;31.40;47.20
41953;DHT22;47381;28.206;112.926;2022-09-17T19:14:26;31.30;47.40
41953;DHT22;47381;28.206;112.926;2022-09-17T19:16:57;31.30;47.60